Time;durP1;ratioP1;P1;durP2;ratioP2;P2;SDS_P1;SDS_P2;PMS_P1;PMS_P2;Temp;Humidity;BMP_temperature;BMP_pressure;BME280_temperature;BME280_humidity;BME280_pressure;Samples;Min_cycle;Max_cycle;Signal;HPM_P1;HPM_P2
2022/04/19 00:00:39;;;;;;;5.97;3.53;;;6.00;1.00;;;;;;5113238;28;20582;-86
2022/04/19 00:03:07;;;;;;;6.40;3.87;;;5.90;1.00;;;;;;5113256;28;20251;-87
2022/04/19 00:05:35;;;;;;;6.40;3.80;;;5.90;1.00;;;;;;5113085;28;20247;-87
2022/04/19 00:08:03;;;;;;;5.37;3.70;;;5.80;1.00;;;;;;5113186;28;20191;-86
2022/04/19 00:10:30;;;;;;;6.17;3.53;;;5.70;1.00;;;;;;5112921;28;20708;-87
2022/04/19 00:12:58;;;;;;;8.17;3.53;;;5.70;1.00;;;;;;5112780;28;20545;-86
2022/04/19 00:15:27;;;;;;;4.77;3.10;;;5.60;1.00;;;;;;5112696;28;20682;-87
2022/04/19 00:17:56;;;;;;;5.33;2.80;;;5.50;1.00;;;;;;5107711;28;20202;-87
2022/04/19 00:20:24;;;;;;;7.13;4.13;;;5.50;1.00;;;;;;5092279;28;20607;-86
2022/04/19 00:22:52;;;;;;;5.13;2.97;;;5.40;1.00;;;;;;5092254;28;20199;-86
2022/04/19 00:25:20;;;;;;;3.97;2.80;;;5.30;1.00;;;;;;5092609;28;20240;-85
2022/04/19 00:27:47;;;;;;;4.87;3.20;;;5.20;1.00;;;;;;5092247;28;20222;-85
2022/04/19 00:30:14;;;;;;;4.23;3.03;;;5.20;1.00;;;;;;5092295;28;20585;-85
2022/04/19 00:32:41;;;;;;;5.53;3.57;;;5.10;1.00;;;;;;5092711;28;20200;-86
2022/04/19 00:35:11;;;;;;;8.40;2.80;;;5.10;1.00;;;;;;5092359;28;20267;-86
2022/04/19 00:37:39;;;;;;;3.90;2.73;;;5.10;1.00;;;;;;5091968;28;20197;-86
2022/04/19 00:40:09;;;;;;;5.27;3.17;;;5.00;1.00;;;;;;5091996;28;20201;-86
2022/04/19 00:42:37;;;;;;;5.17;3.27;;;5.00;1.00;;;;;;5091923;28;20193;-87
2022/04/19 00:45:06;;;;;;;4.83;3.07;;;4.90;7.60;;;;;;5091860;28;20198;-86
2022/04/19 00:47:34;;;;;;;4.97;2.80;;;4.90;12.00;;;;;;5092885;28;20189;-86
2022/04/19 00:50:02;;;;;;;7.83;3.53;;;4.80;17.30;;;;;;5092129;28;20193;-86
2022/04/19 00:52:31;;;;;;;8.03;3.47;;;4.80;17.20;;;;;;5091852;28;20200;-85
2022/04/19 00:54:59;;;;;;;6.70;3.60;;;4.80;21.30;;;;;;5092215;28;20259;-87
2022/04/19 00:57:27;;;;;;;5.77;3.30;;;4.70;23.80;;;;;;5091988;28;20271;-86
2022/04/19 00:59:55;;;;;;;5.93;3.53;;;4.70;23.40;;;;;;5092324;28;20194;-86
2022/04/19 01:02:22;;;;;;;5.80;3.47;;;4.70;29.00;;;;;;5090896;28;20220;-85
2022/04/19 01:04:50;;;;;;;5.50;3.50;;;4.70;28.60;;;;;;5102249;28;20324;-86
2022/04/19 01:07:18;;;;;;;5.67;3.67;;;4.60;29.10;;;;;;5112207;28;20602;-85
2022/04/19 01:09:47;;;;;;;7.30;3.23;;;4.50;34.00;;;;;;5112788;28;20191;-86
2022/04/19 01:15:02;;;;;;;6.20;3.60;;;4.40;62.60;;;;;;5112250;28;20321;-86
2022/04/19 01:17:29;;;;;;;4.93;3.60;;;4.30;84.00;;;;;;5108644;28;20241;-86
2022/04/19 01:19:57;;;;;;;5.00;3.50;;;4.10;99.90;;;;;;5092033;28;20273;-85
2022/04/19 01:22:25;;;;;;;8.73;3.53;;;4.00;99.90;;;;;;5091651;28;20702;-85
2022/04/19 01:24:52;;;;;;;7.07;3.40;;;3.80;99.90;;;;;;5091942;28;20199;-85
2022/04/19 01:27:19;;;;;;;4.67;3.10;;;3.60;99.90;;;;;;5107972;28;20220;-85
2022/04/19 01:29:47;;;;;;;4.83;3.03;;;3.50;99.90;;;;;;5111782;28;20227;-85
2022/04/19 01:32:14;;;;;;;5.10;3.43;;;3.30;99.90;;;;;;5112080;28;20232;-85
2022/04/19 01:34:41;;;;;;;9.77;3.33;;;3.10;99.90;;;;;;5115280;28;20611;-86
2022/04/19 01:37:09;;;;;;;6.23;3.30;;;3.00;99.90;;;;;;5115616;28;20593;-88
2022/04/19 01:42:22;;;;;;;4.97;3.50;;;2.80;99.90;;;;;;5115864;28;20178;-87
2022/04/19 01:44:49;;;;;;;4.77;3.33;;;2.70;99.90;;;;;;5116202;28;20246;-86
2022/04/19 01:47:16;;;;;;;5.47;3.47;;;2.60;99.90;;;;;;5111651;28;20191;-87
2022/04/19 01:49:43;;;;;;;6.53;4.43;;;2.60;99.90;;;;;;5095443;28;20203;-87
2022/04/19 01:52:11;;;;;;;5.23;3.00;;;2.50;99.90;;;;;;5095362;28;20209;-86
2022/04/19 01:54:40;;;;;;;3.47;2.90;;;2.50;99.90;;;;;;5095203;28;20226;-87
2022/04/19 01:57:07;;;;;;;4.43;3.17;;;2.40;99.90;;;;;;5094966;28;20199;-86
2022/04/19 01:59:34;;;;;;;5.30;3.10;;;2.30;1.00;;;;;;5095349;28;20594;-86
2022/04/19 02:02:01;;;;;;;5.40;3.23;;;2.30;1.00;;;;;;5095114;28;20602;-86
2022/04/19 02:04:28;;;;;;;4.00;3.03;;;2.20;1.00;;;;;;5095188;28;20710;-88
2022/04/19 02:06:57;;;;;;;4.83;3.07;;;2.20;1.00;;;;;;5095552;28;20241;-87
2022/04/19 02:09:24;;;;;;;5.50;3.43;;;2.10;1.00;;;;;;5095439;28;20206;-88
2022/04/19 02:11:53;;;;;;;4.07;2.90;;;2.10;1.00;;;;;;5096057;28;20203;-88
2022/04/19 02:14:23;;;;;;;4.50;2.83;;;2.10;1.00;;;;;;5095589;28;20264;-87
2022/04/19 02:16:52;;;;;;;6.57;3.10;;;2.00;1.00;;;;;;5094898;28;20187;-87
2022/04/19 02:19:19;;;;;;;4.93;3.20;;;2.10;1.00;;;;;;5095115;28;20192;-87
2022/04/19 02:21:46;;;;;;;5.40;3.40;;;2.00;1.00;;;;;;5094724;28;20195;-87
2022/04/19 02:24:13;;;;;;;5.57;3.80;;;2.10;1.00;;;;;;5094904;28;20195;-87
2022/04/19 02:26:40;;;;;;;6.80;3.60;;;2.00;1.00;;;;;;5094836;28;20742;-87
2022/04/19 02:29:09;;;;;;;5.73;3.07;;;2.00;1.00;;;;;;5094162;28;20233;-86
2022/04/19 02:31:36;;;;;;;4.13;3.33;;;1.90;1.00;;;;;;5094548;28;20253;-87
2022/04/19 02:34:03;;;;;;;4.87;3.70;;;1.90;1.00;;;;;;5094396;28;20199;-85
2022/04/19 02:36:30;;;;;;;4.30;3.00;;;1.90;1.00;;;;;;5094278;28;20560;-86
2022/04/19 02:38:59;;;;;;;6.53;3.60;;;1.90;1.00;;;;;;5094352;28;20264;-86
2022/04/19 02:41:26;;;;;;;6.10;3.50;;;1.80;1.00;;;;;;5095033;28;20219;-86
2022/04/19 02:43:53;;;;;;;5.70;3.27;;;1.80;1.00;;;;;;5094679;28;20191;-86
2022/04/19 02:46:22;;;;;;;4.80;3.20;;;1.80;1.00;;;;;;5093790;28;20211;-87
2022/04/19 02:48:49;;;;;;;5.97;3.40;;;1.70;1.00;;;;;;5100554;28;20187;-86
2022/04/19 02:51:16;;;;;;;5.50;3.23;;;1.60;1.00;;;;;;5114563;28;20535;-85
2022/04/19 02:53:44;;;;;;;6.17;3.33;;;1.60;1.00;;;;;;5114178;28;20233;-85
2022/04/19 02:56:11;;;;;;;5.97;2.93;;;1.60;1.00;;;;;;5114334;28;20230;-84
2022/04/19 02:58:38;;;;;;;5.50;3.33;;;1.60;1.00;;;;;;5114206;28;20243;-85
2022/04/19 03:01:05;;;;;;;4.77;3.30;;;1.70;1.00;;;;;;5114090;28;20194;-85
2022/04/19 03:03:33;;;;;;;6.47;3.57;;;1.70;1.00;;;;;;5114396;28;20255;-85
2022/04/19 03:06:00;;;;;;;6.83;3.47;;;1.80;1.00;;;;;;5103624;28;20606;-87
2022/04/19 03:08:28;;;;;;;7.30;3.40;;;1.80;1.00;;;;;;5094119;28;20187;-85
2022/04/19 03:10:55;;;;;;;5.30;3.00;;;1.90;1.00;;;;;;5094614;28;20314;-87
2022/04/19 03:13:23;;;;;;;5.53;3.03;;;2.00;1.00;;;;;;5093766;28;20199;-88
2022/04/19 03:15:50;;;;;;;3.90;3.10;;;2.00;1.00;;;;;;5093859;28;20616;-85
2022/04/19 03:18:16;;;;;;;5.47;3.23;;;2.00;1.00;;;;;;5093284;28;20600;-86
2022/04/19 03:20:46;;;;;;;6.70;3.70;;;2.00;1.00;;;;;;5093311;28;20710;-86
2022/04/19 03:28:42;;;;;;;5.27;3.40;;;1.80;99.90;;;;;;5093586;28;20267;-85
2022/04/19 03:31:09;;;;;;;4.47;3.17;;;1.80;99.90;;;;;;5093230;28;20252;-86
2022/04/19 03:33:36;;;;;;;5.20;3.33;;;1.70;99.90;;;;;;5093248;28;20236;-87
2022/04/19 03:36:05;;;;;;;5.70;3.07;;;1.70;99.90;;;;;;5101488;28;20537;-87
2022/04/19 03:38:34;;;;;;;5.23;3.53;;;1.70;99.90;;;;;;5093179;28;20256;-87
2022/04/19 03:41:01;;;;;;;5.87;3.20;;;1.70;99.90;;;;;;5093637;28;20206;-86
2022/04/19 03:43:28;;;;;;;5.70;3.27;;;1.70;99.90;;;;;;5094709;28;20710;-88
2022/04/19 03:45:55;;;;;;;5.10;3.33;;;1.70;99.90;;;;;;5095905;28;20253;-87
2022/04/19 03:48:22;;;;;;;6.43;3.03;;;1.70;99.90;;;;;;5096020;28;20244;-88
2022/04/19 03:50:51;;;;;;;8.70;3.67;;;1.60;99.90;;;;;;5094341;28;20645;-87
2022/04/19 03:53:19;;;;;;;4.97;3.30;;;1.70;99.90;;;;;;5093158;28;20222;-87
2022/04/19 03:55:46;;;;;;;5.27;3.43;;;1.70;99.90;;;;;;5092439;28;20711;-87
2022/04/19 03:58:13;;;;;;;7.00;3.40;;;1.70;1.00;;;;;;5092046;28;20192;-87
2022/04/19 04:00:40;;;;;;;6.20;3.30;;;1.80;1.00;;;;;;5093658;28;20199;-87
2022/04/19 04:03:08;;;;;;;5.33;3.30;;;1.90;1.00;;;;;;5095569;28;20652;-87
2022/04/19 04:05:35;;;;;;;5.93;3.23;;;2.00;1.00;;;;;;5096517;28;20207;-87
2022/04/19 04:08:02;;;;;;;6.57;3.20;;;2.10;1.00;;;;;;5113511;28;20205;-88
2022/04/19 04:10:31;;;;;;;5.87;3.10;;;2.10;1.00;;;;;;5113213;28;20227;-87
2022/04/19 04:12:59;;;;;;;6.00;3.57;;;2.10;1.00;;;;;;5113937;28;20263;-86
2022/04/19 04:15:27;;;;;;;4.73;3.23;;;2.10;99.90;;;;;;5116851;28;20194;-85
2022/04/19 04:17:54;;;;;;;5.37;3.47;;;2.20;99.90;;;;;;5115487;28;20706;-87
2022/04/19 04:20:21;;;;;;;4.47;3.60;;;2.20;99.90;;;;;;5112613;28;20195;-86
2022/04/19 04:22:48;;;;;;;4.70;3.60;;;2.20;99.90;;;;;;5112785;28;20277;-86
2022/04/19 04:25:15;;;;;;;5.67;3.70;;;2.20;99.90;;;;;;5113171;28;20244;-87
2022/04/19 04:27:43;;;;;;;5.07;3.50;;;2.30;1.00;;;;;;5112842;28;20247;-86
2022/04/19 04:30:10;;;;;;;9.63;4.40;;;2.30;1.00;;;;;;5111984;28;20595;-86
2022/04/19 04:32:37;;;;;;;7.40;4.23;;;2.30;1.00;;;;;;5111845;28;20259;-86
2022/04/19 04:35:05;;;;;;;8.87;4.40;;;2.40;1.00;;;;;;5109038;28;20645;-86
2022/04/19 04:37:32;;;;;;;8.07;4.53;;;2.40;1.00;;;;;;5112376;28;20617;-86
2022/04/19 04:39:59;;;;;;;8.07;4.20;;;2.50;1.00;;;;;;5112833;28;20274;-86
2022/04/19 04:42:27;;;;;;;7.50;4.00;;;2.60;1.00;;;;;;5112349;28;20209;-85
2022/04/19 04:44:55;;;;;;;6.33;4.00;;;2.70;1.00;;;;;;5112302;28;20609;-85
2022/04/19 04:50:09;;;;;;;5.40;3.77;;;2.90;1.00;;;;;;5112439;28;20186;-86
2022/04/19 04:52:36;;;;;;;6.43;3.50;;;3.10;1.00;;;;;;5112417;28;20239;-87
2022/04/19 04:55:05;;;;;;;5.10;3.73;;;3.30;1.00;;;;;;5111909;28;20648;-87
2022/04/19 04:57:32;;;;;;;10.50;3.50;;;3.50;1.00;;;;;;5112523;28;20189;-87
2022/04/19 05:00:00;;;;;;;5.87;3.33;;;3.70;1.00;;;;;;5112225;28;20202;-86
2022/04/19 05:02:27;;;;;;;6.67;3.63;;;4.20;1.00;;;;;;5112791;28;20236;-89
2022/04/19 05:04:54;;;;;;;6.10;3.10;;;5.10;1.00;;;;;;5108518;28;20209;-88
2022/04/19 05:07:21;;;;;;;3.90;2.60;;;6.10;1.00;;;;;;5090143;28;20276;-89
2022/04/19 05:09:48;;;;;;;5.50;2.77;;;7.40;1.00;;;;;;5094420;28;20236;-89
2022/04/19 05:12:15;;;;;;;5.10;2.90;;;8.80;1.00;;;;;;5105897;28;20237;-88
2022/04/19 05:14:42;;;;;;;3.80;2.90;;;10.10;99.90;;;;;;5115978;28;20537;-89
2022/04/19 05:17:10;;;;;;;5.33;2.60;;;11.20;99.90;;;;;;5116177;28;20269;-87
2022/04/19 05:19:37;;;;;;;4.60;3.17;;;11.70;1.00;;;;;;5116271;28;20254;-86
2022/04/19 05:22:05;;;;;;;5.07;3.00;;;11.50;1.00;;;;;;5114904;28;20787;-87
2022/04/19 05:24:32;;;;;;;5.60;4.23;;;11.00;1.00;;;;;;5115172;28;20189;-87
2022/04/19 05:26:59;;;;;;;5.67;4.13;;;10.50;1.00;;;;;;5115654;28;20211;-87
2022/04/19 05:29:26;;;;;;;3.97;3.17;;;10.00;1.00;;;;;;5115902;28;20228;-88
2022/04/19 05:31:53;;;;;;;8.30;4.67;;;9.50;1.00;;;;;;5115738;28;20200;-87
2022/04/19 05:34:21;;;;;;;7.13;4.20;;;9.10;1.00;;;;;;5114540;28;20187;-88
2022/04/19 05:36:48;;;;;;;6.17;3.60;;;8.80;1.00;;;;;;5115973;28;20260;-87
2022/04/19 05:39:15;;;;;;;15.07;8.80;;;8.60;1.00;;;;;;5116059;28;20191;-85
2022/04/19 05:41:42;;;;;;;12.70;7.90;;;8.40;1.00;;;;;;5115845;28;20195;-87
2022/04/19 05:44:09;;;;;;;12.80;8.80;;;8.30;1.00;;;;;;5114933;28;20676;-88
2022/04/19 05:46:37;;;;;;;10.23;5.83;;;8.20;1.00;;;;;;5115693;28;20226;-88
2022/04/19 05:49:05;;;;;;;8.67;4.77;;;8.20;1.00;;;;;;5115921;28;20194;-87
2022/04/19 05:51:34;;;;;;;5.00;3.57;;;8.10;1.00;;;;;;5115649;28;20248;-87
2022/04/19 05:54:01;;;;;;;3.90;3.17;;;8.10;1.00;;;;;;5116057;28;20189;-89
2022/04/19 05:56:30;;;;;;;6.47;3.73;;;8.10;1.00;;;;;;5115646;28;20231;-87
2022/04/19 05:58:57;;;;;;;4.97;3.13;;;8.00;1.00;;;;;;5115630;28;20197;-88
2022/04/19 06:01:24;;;;;;;7.60;3.40;;;8.00;1.00;;;;;;5115597;28;20198;-88
2022/04/19 06:06:39;;;;;;;5.00;3.40;;;8.00;1.00;;;;;;5095175;28;20207;-88
2022/04/19 06:09:06;;;;;;;5.07;3.27;;;8.00;1.00;;;;;;5095225;28;20179;-87
2022/04/19 06:11:33;;;;;;;5.60;3.63;;;8.10;1.00;;;;;;5095288;28;20248;-88
2022/04/19 06:14:00;;;;;;;5.00;3.30;;;8.30;1.00;;;;;;5094932;28;20247;-88
2022/04/19 06:16:26;;;;;;;4.90;2.97;;;8.80;1.00;;;;;;5094947;28;20283;-89
2022/04/19 06:18:53;;;;;;;6.13;3.20;;;9.20;1.00;;;;;;5094855;28;20192;-88
2022/04/19 06:21:20;;;;;;;7.30;3.30;;;9.50;1.00;;;;;;5093734;28;20249;-88
2022/04/19 06:23:49;;;;;;;4.93;3.10;;;9.80;1.00;;;;;;5094334;28;20245;-88
2022/04/19 06:26:16;;;;;;;5.03;2.93;;;10.00;1.00;;;;;;5094741;28;20211;-89
2022/04/19 06:28:43;;;;;;;4.87;3.30;;;10.00;1.00;;;;;;5094163;28;20223;-88
2022/04/19 06:31:10;;;;;;;4.43;3.00;;;10.20;1.00;;;;;;5094607;28;20563;-88
2022/04/19 06:33:38;;;;;;;5.43;2.90;;;10.40;1.00;;;;;;5095331;28;20192;-87
2022/04/19 06:36:06;;;;;;;4.37;2.80;;;10.70;1.00;;;;;;5094325;28;20614;-89
2022/04/19 06:38:34;;;;;;;3.90;2.90;;;11.20;1.00;;;;;;5094880;28;20242;-88
2022/04/19 06:41:02;;;;;;;4.57;2.97;;;11.70;1.00;;;;;;5094481;28;20238;-89
2022/04/19 06:43:31;;;;;;;4.60;2.97;;;12.10;1.00;;;;;;5094304;28;20197;-88
2022/04/19 06:45:58;;;;;;;5.23;2.77;;;12.20;1.00;;;;;;5093855;28;20559;-88
2022/04/19 06:48:25;;;;;;;4.53;2.80;;;12.30;1.00;;;;;;5093844;28;20603;-88
2022/04/19 06:50:52;;;;;;;4.40;2.70;;;12.30;1.00;;;;;;5094253;28;20191;-88
2022/04/19 06:53:19;;;;;;;4.77;2.90;;;12.40;1.00;;;;;;5093895;28;20611;-87
2022/04/19 06:55:46;;;;;;;4.63;2.70;;;12.50;1.00;;;;;;5094153;28;20198;-88
2022/04/19 06:58:17;;;;;;;5.57;2.97;;;13.10;1.00;;;;;;5094112;28;20551;-89
2022/04/19 07:00:45;;;;;;;4.90;2.43;;;13.90;1.00;;;;;;5093704;28;20186;-86
2022/04/19 07:03:12;;;;;;;4.10;2.40;;;14.90;1.00;;;;;;5093767;28;20646;-86
2022/04/19 07:05:39;;;;;;;4.32;2.58;;;15.20;1.00;;;;;;5093251;28;20659;-86
2022/04/19 07:08:06;;;;;;;2.67;2.10;;;15.20;1.00;;;;;;5093525;28;20683;-86
2022/04/19 07:10:35;;;;;;;4.20;2.33;;;15.50;1.00;;;;;;5093470;28;20550;-86
2022/04/19 07:13:02;;;;;;;3.25;2.47;;;15.90;1.00;;;;;;5093783;28;20637;-86
2022/04/19 07:15:31;;;;;;;3.97;2.05;;;16.30;1.00;;;;;;5093695;28;20278;-86
2022/04/19 07:17:58;;;;;;;2.90;2.20;;;16.70;1.00;;;;;;5093371;28;20199;-86
2022/04/19 07:28:38;;;;;;;5.47;3.80;;;16.20;1.00;;;;;;5093681;28;20268;-89
2022/04/19 07:31:07;;;;;;;3.13;2.40;;;15.60;1.00;;;;;;5093106;28;20255;-89
2022/04/19 07:33:38;;;;;;;3.90;2.70;;;15.00;1.00;;;;;;5093437;28;20197;-89
2022/04/19 07:36:05;;;;;;;3.70;2.28;;;14.80;1.00;;;;;;5093552;28;20180;-89
2022/04/19 07:38:32;;;;;;;3.53;2.40;;;14.80;1.00;;;;;;5093236;28;20193;-89
2022/04/19 07:40:59;;;;;;;4.17;2.53;;;14.40;1.00;;;;;;5092921;28;20241;-89
2022/04/19 07:43:27;;;;;;;3.57;2.30;;;14.00;1.00;;;;;;5093001;28;20194;-88
2022/04/19 07:45:54;;;;;;;5.83;2.10;;;13.70;1.00;;;;;;5111961;28;20596;-89
2022/04/19 07:48:22;;;;;;;3.17;2.10;;;13.90;1.00;;;;;;5113096;28;20209;-89
2022/04/19 07:50:49;;;;;;;3.15;2.00;;;14.80;1.00;;;;;;5113252;28;20248;-89
2022/04/19 07:53:16;;;;;;;4.13;2.05;;;15.60;1.00;;;;;;5113061;28;20653;-87
2022/04/19 07:55:43;;;;;;;2.97;1.75;;;16.40;1.00;;;;;;5112915;28;20558;-86
2022/04/19 07:58:10;;;;;;;3.08;2.00;;;16.50;1.00;;;;;;5113728;28;20226;-86
2022/04/19 08:00:37;;;;;;;2.67;2.00;;;16.50;1.00;;;;;;5113262;28;20195;-87
2022/04/19 08:03:04;;;;;;;2.40;1.75;;;16.80;1.00;;;;;;5113222;28;20194;-87
2022/04/19 08:05:32;;;;;;;4.35;2.20;;;17.20;1.00;;;;;;5095199;28;20192;-87
2022/04/19 08:08:03;;;;;;;2.47;1.95;;;17.50;1.00;;;;;;5092387;28;20681;-87
2022/04/19 08:10:30;;;;;;;3.03;2.10;;;17.50;1.00;;;;;;5092414;28;20176;-86
2022/04/19 08:12:57;;;;;;;6.15;1.80;;;17.30;1.00;;;;;;5092881;28;20253;-86
2022/04/19 08:15:24;;;;;;;2.97;1.92;;;17.00;1.00;;;;;;5092728;28;20234;-87
2022/04/19 08:17:51;;;;;;;2.58;1.52;;;16.90;1.00;;;;;;5092630;28;20195;-86
2022/04/19 08:20:18;;;;;;;4.28;1.77;;;17.30;1.00;;;;;;5092479;28;20187;-87
2022/04/19 08:22:47;;;;;;;2.85;1.67;;;17.60;1.00;;;;;;5092629;28;20195;-87
2022/04/19 08:25:14;;;;;;;2.47;1.80;;;18.00;1.00;;;;;;5092869;28;20240;-87
2022/04/19 08:27:45;;;;;;;3.30;1.50;;;18.50;1.00;;;;;;5092201;28;20219;-87
2022/04/19 08:30:13;;;;;;;2.58;1.70;;;18.50;1.00;;;;;;5092429;28;20601;-87
2022/04/19 08:32:40;;;;;;;2.70;1.80;;;18.40;1.00;;;;;;5092303;28;20734;-86
2022/04/19 08:35:09;;;;;;;3.80;2.28;;;18.20;1.00;;;;;;5092271;28;20605;-87
2022/04/19 08:37:37;;;;;;;2.55;1.70;;;17.90;1.00;;;;;;5092007;28;20567;-86
2022/04/19 08:40:07;;;;;;;2.20;1.58;;;17.80;1.00;;;;;;5092157;28;20614;-87
2022/04/19 08:42:37;;;;;;;2.55;1.50;;;17.30;1.00;;;;;;5091716;28;20188;-86
2022/04/19 08:45:07;;;;;;;1.80;1.30;;;17.00;1.00;;;;;;5092382;28;20286;-86
2022/04/19 08:47:38;;;;;;;1.88;1.35;;;16.80;1.00;;;;;;5091933;28;20207;-86
2022/04/19 08:50:06;;;;;;;4.78;1.65;;;16.60;1.00;;;;;;5091922;28;20245;-88
2022/04/19 08:52:34;;;;;;;2.33;1.55;;;16.40;1.00;;;;;;5092253;28;20184;-86
2022/04/19 08:57:47;;;;;;;1.88;1.25;;;17.10;1.00;;;;;;5092106;28;20183;-86
2022/04/19 09:00:15;;;;;;;7.25;2.15;;;17.30;1.00;;;;;;5092242;28;20195;-87
2022/04/19 09:02:42;;;;;;;6.93;1.90;;;17.40;1.00;;;;;;5091962;28;20286;-86
2022/04/19 09:05:14;;;;;;;3.85;1.33;;;17.60;1.00;;;;;;5108048;28;20597;-86
2022/04/19 09:07:42;;;;;;;2.13;1.60;;;17.70;1.00;;;;;;5112181;28;20203;-87
2022/04/19 09:10:14;;;;;;;1.63;1.30;;;17.60;1.00;;;;;;5112345;28;20243;-87
2022/04/19 09:15:37;;;;;;;2.47;1.63;;;17.30;1.00;;;;;;5167218;27;20530;-86
2022/04/19 09:18:05;;;;;;;2.95;1.70;;;15.70;1.00;;;;;;5151268;27;20196;-86
2022/04/19 09:20:33;;;;;;;3.70;1.92;;;15.90;1.00;;;;;;5151103;27;20253;-86
2022/04/19 09:23:06;;;;;;;1.63;1.30;;;16.40;1.00;;;;;;5151315;27;20193;-87
2022/04/19 09:25:33;;;;;;;3.00;1.73;;;16.80;1.00;;;;;;5151175;27;20181;-87
2022/04/19 09:28:02;;;;;;;1.67;1.45;;;16.30;1.00;;;;;;5150877;27;20242;-86
2022/04/19 09:30:31;;;;;;;2.63;1.10;;;16.40;1.00;;;;;;5150782;27;20190;-87
2022/04/19 09:33:06;;;;;;;3.17;1.95;;;16.70;1.00;;;;;;5151116;27;20190;-87
2022/04/19 09:35:35;;;;;;;3.75;1.63;;;17.10;1.00;;;;;;5150455;27;20201;-87
2022/04/19 09:38:03;;;;;;;3.15;1.70;;;17.10;1.00;;;;;;5150699;27;20234;-86
2022/04/19 09:40:32;;;;;;;2.57;1.63;;;16.40;1.00;;;;;;5150621;27;20240;-87
2022/04/19 09:43:06;;;;;;;1.70;1.30;;;15.90;1.00;;;;;;5150898;27;20203;-87
2022/04/19 09:45:46;;;;;;;4.47;1.53;;;15.60;1.00;;;;;;5150998;27;20186;-87
2022/04/19 09:48:18;;;;;;;2.27;1.57;;;15.70;1.00;;;;;;5150929;27;20244;-86
2022/04/19 09:50:52;;;;;;;3.17;1.70;;;15.50;1.00;;;;;;5151031;27;20226;-86
2022/04/19 09:53:21;;;;;;;2.90;1.90;;;14.80;1.00;;;;;;5150386;27;20175;-86
2022/04/19 09:55:49;;;;;;;2.83;1.53;;;14.40;1.00;;;;;;5150849;27;20195;-86
2022/04/19 09:58:17;;;;;;;2.37;1.63;;;14.50;1.00;;;;;;5150860;27;20230;-86
2022/04/19 10:00:44;;;;;;;2.67;1.80;;;14.50;1.00;;;;;;5150589;27;20204;-86
2022/04/19 10:08:45;;;;;;;3.77;2.10;;;14.50;1.00;;;;;;5129530;28;20186;-86
2022/04/19 10:11:12;;;;;;;3.77;1.90;;;14.50;1.00;;;;;;5129668;27;20193;-86
2022/04/19 10:13:41;;;;;;;2.20;2.00;;;14.70;1.00;;;;;;5149469;27;20218;-85
2022/04/19 10:16:12;;;;;;;3.83;2.33;;;14.60;1.00;;;;;;5150128;27;20192;-86
2022/04/19 10:18:39;;;;;;;2.93;2.57;;;14.10;1.00;;;;;;5149869;27;20263;-86
2022/04/19 10:21:10;;;;;;;3.50;2.03;;;13.80;1.00;;;;;;5149780;27;20236;-86
2022/04/19 10:23:39;;;;;;;2.73;2.00;;;13.40;1.00;;;;;;5150265;27;20185;-85
2022/04/19 10:26:22;;;;;;;3.43;2.20;;;13.50;1.00;;;;;;5141035;27;20193;-86
2022/04/19 10:28:51;;;;;;;3.60;2.37;;;13.90;1.00;;;;;;5136485;27;20182;-85
2022/04/19 10:31:31;;;;;;;3.53;1.80;;;14.30;1.00;;;;;;5136419;27;20526;-87
2022/04/19 10:34:02;;;;;;;3.57;2.20;;;14.60;1.00;;;;;;5135922;27;20257;-86
2022/04/19 10:36:38;;;;;;;2.93;2.10;;;14.80;1.00;;;;;;5136174;27;20182;-87
2022/04/19 10:39:32;;;;;;;4.37;1.87;;;15.00;1.00;;;;;;5135809;27;20598;-85
2022/04/19 10:42:01;;;;;;;4.77;2.07;;;15.00;1.00;;;;;;5136424;27;20203;-86
2022/04/19 10:44:30;;;;;;;6.03;1.80;;;15.00;1.00;;;;;;5135922;27;20223;-85
2022/04/19 10:47:18;;;;;;;4.30;2.10;;;14.80;1.00;;;;;;5135556;27;20645;-85
2022/04/19 10:49:49;;;;;;;2.80;2.10;;;14.60;1.00;;;;;;5130974;27;20192;-88
2022/04/19 10:52:51;;;;;;;3.77;1.90;;;14.50;1.00;;;;;;5135840;27;20593;-86
2022/04/19 10:55:21;;;;;;;3.33;1.70;;;14.60;1.00;;;;;;5132758;27;20227;-87
2022/04/19 10:58:09;;;;;;;3.50;2.00;;;14.60;1.00;;;;;;5135903;27;20281;-87
2022/04/19 11:00:47;;;;;;;2.87;2.17;;;14.50;1.00;;;;;;5135591;27;20194;-87
2022/04/19 11:03:17;;;;;;;3.57;1.90;;;14.60;1.00;;;;;;5141080;27;20186;-90
2022/04/19 11:05:48;;;;;;;3.30;1.93;;;14.60;1.00;;;;;;5157742;27;20206;-90
2022/04/19 11:08:35;;;;;;;3.47;1.73;;;14.70;1.00;;;;;;5158269;27;20215;-90
2022/04/19 11:11:23;;;;;;;2.17;1.70;;;14.60;1.00;;;;;;5158166;27;20193;-91
2022/04/19 11:14:35;;;;;;;3.60;2.10;;;14.30;1.00;;;;;;5158445;27;20234;-91
2022/04/19 11:17:29;;;;;;;2.57;1.90;;;14.00;1.00;;;;;;5157837;27;20180;-92
2022/04/19 11:19:58;;;;;;;2.60;2.10;;;13.70;1.00;;;;;;5158210;27;20183;-92
2022/04/19 11:22:30;;;;;;;3.37;1.80;;;13.80;1.00;;;;;;5158085;27;20259;-93
2022/04/19 11:25:05;;;;;;;4.57;1.90;;;13.80;1.00;;;;;;5158407;27;20242;-91
2022/04/19 11:28:24;;;;;;;2.73;2.27;;;13.80;1.00;;;;;;5157150;27;20540;-88
2022/04/19 11:31:14;;;;;;;3.67;2.00;;;13.70;1.00;;;;;;5095063;28;20207;-89
2022/04/19 11:33:49;;;;;;;4.77;2.00;;;13.90;1.00;;;;;;5075196;28;20227;-90
2022/04/19 11:36:20;;;;;;;4.27;2.07;;;14.00;1.00;;;;;;5123332;28;20197;-88
2022/04/19 11:38:55;;;;;;;3.20;1.83;;;13.90;1.00;;;;;;5135701;28;20201;-88
2022/04/19 11:47:02;;;;;;;4.03;2.10;;;13.90;1.00;;;;;;5136822;28;20200;-90
2022/04/19 11:49:38;;;;;;;5.33;1.90;;;13.80;1.00;;;;;;5136582;28;20195;-89
2022/04/19 11:52:15;;;;;;;2.53;1.90;;;13.80;1.00;;;;;;5136811;28;20182;-92
2022/04/19 11:54:59;;;;;;;3.10;1.90;;;14.00;1.00;;;;;;5136323;28;20204;-90
2022/04/19 11:57:32;;;;;;;2.67;2.40;;;14.20;1.00;;;;;;5136281;28;20202;-92
2022/04/19 12:00:00;;;;;;;3.50;2.00;;;14.30;1.00;;;;;;5136313;27;20195;-90
2022/04/19 12:02:33;;;;;;;3.27;1.73;;;14.40;1.00;;;;;;5136625;28;20268;-88
2022/04/19 12:05:06;;;;;;;2.93;1.90;;;14.50;1.00;;;;;;5136675;28;20194;-93
2022/04/19 12:07:46;;;;;;;2.07;1.70;;;14.60;1.00;;;;;;5137164;28;20189;-89
2022/04/19 12:10:17;;;;;;;5.77;2.00;;;14.70;1.00;;;;;;5136433;28;20223;-89
2022/04/19 12:12:51;;;;;;;3.77;2.03;;;14.70;1.00;;;;;;5136078;28;20195;-91
2022/04/19 12:15:40;;;;;;;2.10;1.60;;;14.70;1.00;;;;;;5135747;28;20227;-90
2022/04/19 12:18:11;;;;;;;2.70;2.07;;;14.60;1.00;;;;;;5135783;28;20203;-92
2022/04/19 12:20:47;;;;;;;3.63;2.10;;;14.50;1.00;;;;;;5136730;28;20177;-94
2022/04/19 12:23:26;;;;;;;3.03;2.40;;;14.50;1.00;;;;;;5142988;27;20193;-93
2022/04/19 12:26:07;;;;;;;3.83;1.57;;;14.70;1.00;;;;;;5157069;27;20189;-90
2022/04/19 12:28:45;;;;;;;3.67;2.10;;;14.50;1.00;;;;;;5156634;27;20195;-90
2022/04/19 12:31:39;;;;;;;3.27;2.70;;;14.50;1.00;;;;;;5156663;27;20191;-93
2022/04/19 12:34:09;;;;;;;4.30;2.30;;;14.30;1.00;;;;;;5156013;27;20225;-93
2022/04/19 12:36:47;;;;;;;1.87;1.60;;;14.30;1.00;;;;;;5157087;27;20611;-89
2022/04/19 12:39:22;;;;;;;2.53;2.33;;;14.30;1.00;;;;;;5156881;27;20264;-91
2022/04/19 12:42:05;;;;;;;3.37;2.00;;;14.30;1.00;;;;;;5156633;27;20266;-93
2022/04/19 12:44:37;;;;;;;2.73;1.63;;;14.30;1.00;;;;;;5156203;27;20205;-90
2022/04/19 12:47:23;;;;;;;3.07;2.07;;;14.40;1.00;;;;;;5156544;27;20225;-90
2022/04/19 12:49:54;;;;;;;2.13;1.67;;;14.30;1.00;;;;;;5156241;27;20196;-90
2022/04/19 12:52:37;;;;;;;2.70;2.10;;;14.40;1.00;;;;;;5156435;27;20202;-90
2022/04/19 12:55:09;;;;;;;2.20;1.90;;;14.40;1.00;;;;;;5135634;28;20209;-90
2022/04/19 12:57:38;;;;;;;2.73;1.73;;;14.30;1.00;;;;;;5134916;28;20540;-90
2022/04/19 13:00:14;;;;;;;2.20;1.70;;;14.30;1.00;;;;;;5139886;27;20215;-90
2022/04/19 13:02:44;;;;;;;3.00;2.00;;;14.50;1.00;;;;;;5156680;27;20184;-90
2022/04/19 13:05:12;;;;;;;2.90;1.90;;;14.70;1.00;;;;;;5156199;27;20211;-90
2022/04/19 13:13:18;;;;;;;2.60;2.00;;;14.50;1.00;;;;;;5156357;28;20165;-89
2022/04/19 13:15:48;;;;;;;2.30;1.90;;;14.50;1.00;;;;;;5156372;27;20233;-87
2022/04/19 13:18:17;;;;;;;2.73;2.00;;;14.40;1.00;;;;;;5156300;28;20182;-89
2022/04/19 13:20:45;;;;;;;1.73;1.60;;;14.30;1.00;;;;;;5156111;28;20195;-88
2022/04/19 13:23:21;;;;;;;2.40;1.70;;;14.50;1.00;;;;;;5155938;28;20190;-88
2022/04/19 13:25:52;;;;;;;5.73;2.13;;;14.50;1.00;;;;;;5153910;27;20180;-89
2022/04/19 13:28:20;;;;;;;2.77;1.80;;;14.50;1.00;;;;;;5154860;28;20199;-91
2022/04/19 13:30:54;;;;;;;2.27;1.70;;;14.40;1.00;;;;;;5154858;28;20263;-92
2022/04/19 13:33:24;;;;;;;2.00;1.83;;;14.40;1.00;;;;;;5140213;27;20198;-89
2022/04/19 13:35:55;;;;;;;2.43;1.93;;;14.40;1.00;;;;;;5134719;28;20221;-90
2022/04/19 13:38:41;;;;;;;4.93;2.00;;;14.40;1.00;;;;;;5135157;28;20175;-89
2022/04/19 13:41:10;;;;;;;3.10;2.03;;;14.30;1.00;;;;;;5135091;28;20192;-87
2022/04/19 13:43:37;;;;;;;2.33;1.90;;;14.40;1.00;;;;;;5137267;27;20220;-85
2022/04/19 13:46:06;;;;;;;2.60;1.90;;;14.50;1.00;;;;;;5132868;28;20189;-87
2022/04/19 13:48:36;;;;;;;3.40;1.90;;;14.50;1.00;;;;;;5133854;27;20207;-87
2022/04/19 13:51:03;;;;;;;2.33;2.13;;;14.60;1.00;;;;;;5142996;28;20202;-88
2022/04/19 13:53:31;;;;;;;4.17;2.00;;;14.60;1.00;;;;;;5152161;27;20216;-85
2022/04/19 13:55:59;;;;;;;2.40;2.00;;;14.70;1.00;;;;;;5132863;27;20235;-86
2022/04/19 13:58:26;;;;;;;4.27;1.90;;;14.80;1.00;;;;;;5132587;28;20282;-86
2022/04/19 14:00:53;;;;;;;3.43;1.97;;;14.70;1.00;;;;;;5119377;27;20189;-86